sensor_id;sensor_type;location;lat;lon;timestamp;P1;durP1;ratioP1;P2;durP2;ratioP2
26965;SDS011;14522;52.068;4.414;2023-11-21T00:00:46;6.47;;;2.60;;
26965;SDS011;14522;52.068;4.414;2023-11-21T00:03:13;9.15;;;2.78;;
26965;SDS011;14522;52.068;4.414;2023-11-21T00:05:41;10.50;;;3.25;;
26965;SDS011;14522;52.068;4.414;2023-11-21T00:08:08;8.60;;;2.95;;
26965;SDS011;14522;52.068;4.414;2023-11-21T00:10:34;9.68;;;2.95;;
26965;SDS011;14522;52.068;4.414;2023-11-21T00:13:01;8.25;;;3.08;;
26965;SDS011;14522;52.068;4.414;2023-11-21T00:15:29;10.48;;;3.33;;
26965;SDS011;14522;52.068;4.414;2023-11-21T00:17:55;6.85;;;2.53;;
26965;SDS011;14522;52.068;4.414;2023-11-21T00:20:21;5.57;;;2.90;;
26965;SDS011;14522;52.068;4.414;2023-11-21T00:22:48;6.00;;;3.03;;
26965;SDS011;14522;52.068;4.414;2023-11-21T00:25:14;9.07;;;3.08;;
26965;SDS011;14522;52.068;4.414;2023-11-21T00:27:41;7.80;;;2.88;;
26965;SDS011;14522;52.068;4.414;2023-11-21T00:30:08;5.65;;;3.10;;
26965;SDS011;14522;52.068;4.414;2023-11-21T00:32:35;10.18;;;3.45;;
26965;SDS011;14522;52.068;4.414;2023-11-21T00:35:02;8.38;;;3.03;;
26965;SDS011;14522;52.068;4.414;2023-11-21T00:37:28;9.70;;;3.00;;
26965;SDS011;14522;52.068;4.414;2023-11-21T00:39:55;7.70;;;3.05;;
26965;SDS011;14522;52.068;4.414;2023-11-21T00:42:22;6.97;;;2.67;;
26965;SDS011;14522;52.068;4.414;2023-11-21T00:44:49;8.18;;;3.30;;
26965;SDS011;14522;52.068;4.414;2023-11-21T00:47:15;6.82;;;2.63;;
26965;SDS011;14522;52.068;4.414;2023-11-21T00:49:42;5.63;;;2.78;;
26965;SDS011;14522;52.068;4.414;2023-11-21T00:52:09;5.05;;;2.40;;
26965;SDS011;14522;52.068;4.414;2023-11-21T00:54:35;8.60;;;3.00;;
26965;SDS011;14522;52.068;4.414;2023-11-21T00:57:02;5.82;;;2.47;;
26965;SDS011;14522;52.068;4.414;2023-11-21T00:59:29;7.90;;;3.13;;
26965;SDS011;14522;52.068;4.414;2023-11-21T01:01:56;9.73;;;3.22;;
26965;SDS011;14522;52.068;4.414;2023-11-21T01:04:26;6.65;;;2.50;;
26965;SDS011;14522;52.068;4.414;2023-11-21T01:06:53;7.50;;;2.80;;
26965;SDS011;14522;52.068;4.414;2023-11-21T01:09:19;8.40;;;2.90;;
26965;SDS011;14522;52.068;4.414;2023-11-21T01:11:46;10.65;;;3.92;;
26965;SDS011;14522;52.068;4.414;2023-11-21T01:14:12;7.10;;;2.47;;
26965;SDS011;14522;52.068;4.414;2023-11-21T01:16:39;10.07;;;3.10;;
26965;SDS011;14522;52.068;4.414;2023-11-21T01:19:06;11.98;;;2.90;;
26965;SDS011;14522;52.068;4.414;2023-11-21T01:21:33;9.73;;;3.13;;
26965;SDS011;14522;52.068;4.414;2023-11-21T01:24:00;6.53;;;2.58;;
26965;SDS011;14522;52.068;4.414;2023-11-21T01:26:26;7.43;;;2.78;;
26965;SDS011;14522;52.068;4.414;2023-11-21T01:28:53;9.43;;;2.92;;
26965;SDS011;14522;52.068;4.414;2023-11-21T01:31:19;16.63;;;3.20;;
26965;SDS011;14522;52.068;4.414;2023-11-21T01:33:46;7.80;;;2.70;;
26965;SDS011;14522;52.068;4.414;2023-11-21T01:36:13;9.02;;;3.38;;
26965;SDS011;14522;52.068;4.414;2023-11-21T01:38:39;10.05;;;2.95;;
26965;SDS011;14522;52.068;4.414;2023-11-21T01:41:06;6.28;;;2.92;;
26965;SDS011;14522;52.068;4.414;2023-11-21T01:43:32;8.85;;;2.60;;
26965;SDS011;14522;52.068;4.414;2023-11-21T01:46:00;7.72;;;3.00;;
26965;SDS011;14522;52.068;4.414;2023-11-21T01:48:27;8.55;;;3.03;;
26965;SDS011;14522;52.068;4.414;2023-11-21T01:50:53;6.80;;;2.80;;
26965;SDS011;14522;52.068;4.414;2023-11-21T01:53:20;8.02;;;2.90;;
26965;SDS011;14522;52.068;4.414;2023-11-21T01:55:46;10.35;;;3.08;;
26965;SDS011;14522;52.068;4.414;2023-11-21T01:58:13;7.90;;;3.13;;
26965;SDS011;14522;52.068;4.414;2023-11-21T02:00:40;6.60;;;2.60;;
26965;SDS011;14522;52.068;4.414;2023-11-21T02:03:06;7.43;;;2.10;;
26965;SDS011;14522;52.068;4.414;2023-11-21T02:05:33;12.20;;;3.22;;
26965;SDS011;14522;52.068;4.414;2023-11-21T02:08:00;11.20;;;3.10;;
26965;SDS011;14522;52.068;4.414;2023-11-21T02:10:27;10.45;;;3.25;;
26965;SDS011;14522;52.068;4.414;2023-11-21T02:12:53;10.02;;;2.97;;
26965;SDS011;14522;52.068;4.414;2023-11-21T02:15:20;7.10;;;2.55;;
26965;SDS011;14522;52.068;4.414;2023-11-21T02:17:47;6.68;;;2.67;;
26965;SDS011;14522;52.068;4.414;2023-11-21T02:20:18;11.02;;;2.72;;
26965;SDS011;14522;52.068;4.414;2023-11-21T02:22:51;7.18;;;2.53;;
26965;SDS011;14522;52.068;4.414;2023-11-21T02:25:28;6.88;;;2.80;;
26965;SDS011;14522;52.068;4.414;2023-11-21T02:27:56;7.88;;;2.80;;
26965;SDS011;14522;52.068;4.414;2023-11-21T02:30:22;9.60;;;2.95;;
26965;SDS011;14522;52.068;4.414;2023-11-21T02:32:51;9.68;;;2.63;;
26965;SDS011;14522;52.068;4.414;2023-11-21T02:35:20;5.10;;;2.03;;
26965;SDS011;14522;52.068;4.414;2023-11-21T02:37:52;8.52;;;2.83;;
26965;SDS011;14522;52.068;4.414;2023-11-21T02:40:18;8.25;;;3.05;;
26965;SDS011;14522;52.068;4.414;2023-11-21T02:42:47;7.47;;;2.97;;
26965;SDS011;14522;52.068;4.414;2023-11-21T02:45:14;7.90;;;2.55;;
26965;SDS011;14522;52.068;4.414;2023-11-21T02:47:46;10.13;;;3.15;;
26965;SDS011;14522;52.068;4.414;2023-11-21T02:50:13;8.98;;;3.20;;
26965;SDS011;14522;52.068;4.414;2023-11-21T02:52:39;6.75;;;2.50;;
26965;SDS011;14522;52.068;4.414;2023-11-21T02:55:06;5.82;;;2.35;;
26965;SDS011;14522;52.068;4.414;2023-11-21T02:57:35;6.85;;;2.42;;
26965;SDS011;14522;52.068;4.414;2023-11-21T03:00:02;6.72;;;2.22;;
26965;SDS011;14522;52.068;4.414;2023-11-21T03:02:28;3.70;;;2.60;;
26965;SDS011;14522;52.068;4.414;2023-11-21T03:04:55;6.30;;;2.50;;
26965;SDS011;14522;52.068;4.414;2023-11-21T03:07:22;10.57;;;2.30;;
26965;SDS011;14522;52.068;4.414;2023-11-21T03:09:48;5.03;;;2.38;;
26965;SDS011;14522;52.068;4.414;2023-11-21T03:12:14;5.30;;;2.63;;
26965;SDS011;14522;52.068;4.414;2023-11-21T03:14:42;7.40;;;2.40;;
26965;SDS011;14522;52.068;4.414;2023-11-21T03:17:08;6.63;;;2.00;;
26965;SDS011;14522;52.068;4.414;2023-11-21T03:19:35;6.10;;;2.30;;
26965;SDS011;14522;52.068;4.414;2023-11-21T03:22:01;6.97;;;2.50;;
26965;SDS011;14522;52.068;4.414;2023-11-21T03:24:28;8.55;;;2.45;;
26965;SDS011;14522;52.068;4.414;2023-11-21T03:26:54;5.75;;;2.33;;
26965;SDS011;14522;52.068;4.414;2023-11-21T03:29:21;4.53;;;2.00;;
26965;SDS011;14522;52.068;4.414;2023-11-21T03:31:47;3.50;;;2.10;;
26965;SDS011;14522;52.068;4.414;2023-11-21T03:34:22;7.57;;;2.40;;
26965;SDS011;14522;52.068;4.414;2023-11-21T03:36:49;5.57;;;2.00;;
26965;SDS011;14522;52.068;4.414;2023-11-21T03:39:15;6.95;;;2.53;;
26965;SDS011;14522;52.068;4.414;2023-11-21T03:41:42;5.30;;;2.45;;
26965;SDS011;14522;52.068;4.414;2023-11-21T03:44:08;5.28;;;2.20;;
26965;SDS011;14522;52.068;4.414;2023-11-21T03:46:34;7.93;;;2.25;;
26965;SDS011;14522;52.068;4.414;2023-11-21T03:49:01;5.53;;;2.30;;
26965;SDS011;14522;52.068;4.414;2023-11-21T03:51:27;6.82;;;2.63;;
26965;SDS011;14522;52.068;4.414;2023-11-21T03:53:54;9.65;;;2.30;;
26965;SDS011;14522;52.068;4.414;2023-11-21T03:56:20;8.02;;;3.50;;
26965;SDS011;14522;52.068;4.414;2023-11-21T03:58:48;7.15;;;2.50;;
26965;SDS011;14522;52.068;4.414;2023-11-21T04:01:21;8.45;;;2.50;;
26965;SDS011;14522;52.068;4.414;2023-11-21T04:03:50;5.32;;;2.10;;
26965;SDS011;14522;52.068;4.414;2023-11-21T04:06:17;5.18;;;2.60;;
26965;SDS011;14522;52.068;4.414;2023-11-21T04:08:44;6.13;;;2.65;;
26965;SDS011;14522;52.068;4.414;2023-11-21T04:11:11;3.80;;;1.77;;
26965;SDS011;14522;52.068;4.414;2023-11-21T04:13:40;5.93;;;2.80;;
26965;SDS011;14522;52.068;4.414;2023-11-21T04:16:07;5.55;;;2.20;;
26965;SDS011;14522;52.068;4.414;2023-11-21T04:18:35;5.43;;;2.42;;
26965;SDS011;14522;52.068;4.414;2023-11-21T04:21:02;4.13;;;2.22;;
26965;SDS011;14522;52.068;4.414;2023-11-21T04:23:28;5.43;;;2.25;;
26965;SDS011;14522;52.068;4.414;2023-11-21T04:25:55;8.63;;;2.10;;
26965;SDS011;14522;52.068;4.414;2023-11-21T04:28:23;4.53;;;2.20;;
26965;SDS011;14522;52.068;4.414;2023-11-21T04:30:50;7.00;;;2.67;;
26965;SDS011;14522;52.068;4.414;2023-11-21T04:33:17;6.80;;;2.45;;
26965;SDS011;14522;52.068;4.414;2023-11-21T04:35:43;5.32;;;2.38;;
26965;SDS011;14522;52.068;4.414;2023-11-21T04:38:10;5.05;;;2.15;;
26965;SDS011;14522;52.068;4.414;2023-11-21T04:40:36;5.55;;;1.90;;
26965;SDS011;14522;52.068;4.414;2023-11-21T04:43:03;4.28;;;1.50;;
26965;SDS011;14522;52.068;4.414;2023-11-21T04:45:30;5.72;;;1.58;;
26965;SDS011;14522;52.068;4.414;2023-11-21T04:47:56;2.67;;;1.42;;
26965;SDS011;14522;52.068;4.414;2023-11-21T04:50:23;1.48;;;0.70;;
26965;SDS011;14522;52.068;4.414;2023-11-21T04:52:49;3.85;;;1.45;;
26965;SDS011;14522;52.068;4.414;2023-11-21T04:55:15;1.38;;;0.68;;
26965;SDS011;14522;52.068;4.414;2023-11-21T04:57:42;1.45;;;0.77;;
26965;SDS011;14522;52.068;4.414;2023-11-21T05:00:09;1.85;;;1.15;;
26965;SDS011;14522;52.068;4.414;2023-11-21T05:02:36;3.42;;;1.00;;
26965;SDS011;14522;52.068;4.414;2023-11-21T05:05:02;2.00;;;1.00;;
26965;SDS011;14522;52.068;4.414;2023-11-21T05:07:32;2.20;;;0.70;;
26965;SDS011;14522;52.068;4.414;2023-11-21T05:09:58;1.85;;;0.70;;
26965;SDS011;14522;52.068;4.414;2023-11-21T05:12:25;1.73;;;0.80;;
26965;SDS011;14522;52.068;4.414;2023-11-21T05:14:51;1.30;;;0.60;;
26965;SDS011;14522;52.068;4.414;2023-11-21T05:17:18;1.92;;;0.60;;
26965;SDS011;14522;52.068;4.414;2023-11-21T05:19:45;0.60;;;0.40;;
26965;SDS011;14522;52.068;4.414;2023-11-21T05:22:15;1.10;;;0.50;;
26965;SDS011;14522;52.068;4.414;2023-11-21T05:24:42;0.50;;;0.30;;
26965;SDS011;14522;52.068;4.414;2023-11-21T05:27:08;1.88;;;0.63;;
26965;SDS011;14522;52.068;4.414;2023-11-21T05:29:36;2.35;;;0.70;;
26965;SDS011;14522;52.068;4.414;2023-11-21T05:32:04;1.20;;;0.50;;
26965;SDS011;14522;52.068;4.414;2023-11-21T05:34:30;4.25;;;0.70;;
26965;SDS011;14522;52.068;4.414;2023-11-21T05:36:57;0.95;;;0.52;;
26965;SDS011;14522;52.068;4.414;2023-11-21T05:39:24;0.82;;;0.50;;
26965;SDS011;14522;52.068;4.414;2023-11-21T05:41:51;0.90;;;0.55;;
26965;SDS011;14522;52.068;4.414;2023-11-21T05:44:17;1.52;;;0.68;;
26965;SDS011;14522;52.068;4.414;2023-11-21T05:46:44;2.05;;;0.90;;
26965;SDS011;14522;52.068;4.414;2023-11-21T05:49:10;2.25;;;1.00;;
26965;SDS011;14522;52.068;4.414;2023-11-21T05:51:37;1.85;;;0.70;;
26965;SDS011;14522;52.068;4.414;2023-11-21T05:54:04;3.83;;;1.00;;
26965;SDS011;14522;52.068;4.414;2023-11-21T05:56:31;3.60;;;1.17;;
26965;SDS011;14522;52.068;4.414;2023-11-21T05:58:57;2.58;;;0.88;;
26965;SDS011;14522;52.068;4.414;2023-11-21T06:01:24;2.08;;;0.73;;
26965;SDS011;14522;52.068;4.414;2023-11-21T06:03:50;2.85;;;1.05;;
26965;SDS011;14522;52.068;4.414;2023-11-21T06:06:17;4.80;;;0.75;;
26965;SDS011;14522;52.068;4.414;2023-11-21T06:08:43;2.25;;;0.57;;
26965;SDS011;14522;52.068;4.414;2023-11-21T06:11:10;1.60;;;0.55;;
26965;SDS011;14522;52.068;4.414;2023-11-21T06:13:42;3.28;;;0.55;;
26965;SDS011;14522;52.068;4.414;2023-11-21T06:16:09;3.30;;;0.50;;
26965;SDS011;14522;52.068;4.414;2023-11-21T06:18:36;2.28;;;0.60;;
26965;SDS011;14522;52.068;4.414;2023-11-21T06:21:02;1.10;;;0.45;;
26965;SDS011;14522;52.068;4.414;2023-11-21T06:23:29;2.13;;;0.80;;
26965;SDS011;14522;52.068;4.414;2023-11-21T06:25:55;2.55;;;0.70;;
26965;SDS011;14522;52.068;4.414;2023-11-21T06:28:22;2.15;;;0.57;;
26965;SDS011;14522;52.068;4.414;2023-11-21T06:30:48;3.55;;;0.70;;
26965;SDS011;14522;52.068;4.414;2023-11-21T06:33:15;1.75;;;0.60;;
26965;SDS011;14522;52.068;4.414;2023-11-21T06:35:42;1.60;;;0.60;;
26965;SDS011;14522;52.068;4.414;2023-11-21T06:38:09;1.40;;;0.93;;
26965;SDS011;14522;52.068;4.414;2023-11-21T06:40:37;2.40;;;0.88;;
26965;SDS011;14522;52.068;4.414;2023-11-21T06:43:04;1.85;;;0.70;;
26965;SDS011;14522;52.068;4.414;2023-11-21T06:45:33;0.88;;;0.70;;
26965;SDS011;14522;52.068;4.414;2023-11-21T06:48:00;3.65;;;1.13;;
26965;SDS011;14522;52.068;4.414;2023-11-21T06:50:26;3.33;;;0.80;;
26965;SDS011;14522;52.068;4.414;2023-11-21T06:52:53;2.22;;;0.70;;
26965;SDS011;14522;52.068;4.414;2023-11-21T06:55:19;2.88;;;0.80;;
26965;SDS011;14522;52.068;4.414;2023-11-21T06:57:46;6.93;;;1.20;;
26965;SDS011;14522;52.068;4.414;2023-11-21T07:00:13;4.40;;;1.30;;
26965;SDS011;14522;52.068;4.414;2023-11-21T07:02:41;4.32;;;1.60;;
26965;SDS011;14522;52.068;4.414;2023-11-21T07:05:08;5.32;;;1.10;;
26965;SDS011;14522;52.068;4.414;2023-11-21T07:07:34;5.65;;;1.08;;
26965;SDS011;14522;52.068;4.414;2023-11-21T07:10:02;7.22;;;1.77;;
26965;SDS011;14522;52.068;4.414;2023-11-21T07:12:30;3.78;;;1.23;;
26965;SDS011;14522;52.068;4.414;2023-11-21T07:14:57;9.43;;;1.23;;
26965;SDS011;14522;52.068;4.414;2023-11-21T07:17:24;4.35;;;1.10;;
26965;SDS011;14522;52.068;4.414;2023-11-21T07:19:50;6.70;;;1.23;;
26965;SDS011;14522;52.068;4.414;2023-11-21T07:22:17;6.43;;;1.23;;
26965;SDS011;14522;52.068;4.414;2023-11-21T07:24:48;4.38;;;1.10;;
26965;SDS011;14522;52.068;4.414;2023-11-21T07:27:15;6.63;;;1.20;;
26965;SDS011;14522;52.068;4.414;2023-11-21T07:29:43;9.48;;;1.50;;
26965;SDS011;14522;52.068;4.414;2023-11-21T07:32:10;5.78;;;1.30;;
26965;SDS011;14522;52.068;4.414;2023-11-21T07:34:36;10.50;;;1.13;;
26965;SDS011;14522;52.068;4.414;2023-11-21T07:37:06;4.60;;;1.30;;
26965;SDS011;14522;52.068;4.414;2023-11-21T07:39:32;6.07;;;1.23;;
26965;SDS011;14522;52.068;4.414;2023-11-21T07:41:59;5.25;;;1.40;;
26965;SDS011;14522;52.068;4.414;2023-11-21T07:44:25;5.15;;;1.20;;
26965;SDS011;14522;52.068;4.414;2023-11-21T07:46:52;9.57;;;1.27;;
26965;SDS011;14522;52.068;4.414;2023-11-21T07:49:19;9.27;;;1.58;;
26965;SDS011;14522;52.068;4.414;2023-11-21T07:51:47;5.50;;;1.20;;
26965;SDS011;14522;52.068;4.414;2023-11-21T07:54:14;6.13;;;1.48;;
26965;SDS011;14522;52.068;4.414;2023-11-21T07:56:40;7.20;;;1.35;;
26965;SDS011;14522;52.068;4.414;2023-11-21T07:59:06;3.13;;;1.10;;
26965;SDS011;14522;52.068;4.414;2023-11-21T08:01:33;5.38;;;1.20;;
26965;SDS011;14522;52.068;4.414;2023-11-21T08:03:59;2.58;;;0.80;;
26965;SDS011;14522;52.068;4.414;2023-11-21T08:06:30;10.48;;;1.40;;
26965;SDS011;14522;52.068;4.414;2023-11-21T08:08:57;6.97;;;1.67;;
26965;SDS011;14522;52.068;4.414;2023-11-21T08:11:23;7.53;;;1.25;;
26965;SDS011;14522;52.068;4.414;2023-11-21T08:13:50;8.25;;;1.00;;
26965;SDS011;14522;52.068;4.414;2023-11-21T08:16:16;3.08;;;1.02;;
26965;SDS011;14522;52.068;4.414;2023-11-21T08:18:43;2.67;;;1.42;;
26965;SDS011;14522;52.068;4.414;2023-11-21T08:21:11;4.30;;;1.08;;
26965;SDS011;14522;52.068;4.414;2023-11-21T08:23:38;3.40;;;1.23;;
26965;SDS011;14522;52.068;4.414;2023-11-21T08:26:05;10.00;;;2.00;;
26965;SDS011;14522;52.068;4.414;2023-11-21T08:28:32;7.65;;;1.48;;
26965;SDS011;14522;52.068;4.414;2023-11-21T08:30:58;10.38;;;1.40;;
26965;SDS011;14522;52.068;4.414;2023-11-21T08:33:25;5.47;;;1.23;;
26965;SDS011;14522;52.068;4.414;2023-11-21T08:35:51;3.83;;;1.15;;
26965;SDS011;14522;52.068;4.414;2023-11-21T08:38:18;7.38;;;1.75;;
26965;SDS011;14522;52.068;4.414;2023-11-21T08:40:44;7.32;;;1.50;;
26965;SDS011;14522;52.068;4.414;2023-11-21T08:43:11;5.45;;;1.42;;
26965;SDS011;14522;52.068;4.414;2023-11-21T08:45:38;5.07;;;1.50;;
26965;SDS011;14522;52.068;4.414;2023-11-21T08:48:05;2.92;;;1.42;;
26965;SDS011;14522;52.068;4.414;2023-11-21T08:50:32;9.23;;;1.42;;
26965;SDS011;14522;52.068;4.414;2023-11-21T08:52:58;5.07;;;1.15;;
26965;SDS011;14522;52.068;4.414;2023-11-21T08:55:25;4.22;;;1.40;;
26965;SDS011;14522;52.068;4.414;2023-11-21T08:57:52;3.78;;;1.05;;
26965;SDS011;14522;52.068;4.414;2023-11-21T09:00:18;3.70;;;1.10;;
26965;SDS011;14522;52.068;4.414;2023-11-21T09:02:47;3.22;;;1.40;;
26965;SDS011;14522;52.068;4.414;2023-11-21T09:05:14;3.90;;;1.40;;
26965;SDS011;14522;52.068;4.414;2023-11-21T09:07:42;2.85;;;1.30;;
26965;SDS011;14522;52.068;4.414;2023-11-21T09:10:09;4.30;;;1.35;;
26965;SDS011;14522;52.068;4.414;2023-11-21T09:12:36;4.47;;;1.42;;
26965;SDS011;14522;52.068;4.414;2023-11-21T09:15:06;4.88;;;1.23;;
26965;SDS011;14522;52.068;4.414;2023-11-21T09:17:33;2.80;;;1.33;;
26965;SDS011;14522;52.068;4.414;2023-11-21T09:20:04;3.97;;;1.30;;
26965;SDS011;14522;52.068;4.414;2023-11-21T09:22:32;2.40;;;0.90;;
26965;SDS011;14522;52.068;4.414;2023-11-21T09:24:58;2.15;;;1.38;;
26965;SDS011;14522;52.068;4.414;2023-11-21T09:27:25;3.22;;;1.38;;
26965;SDS011;14522;52.068;4.414;2023-11-21T09:29:54;3.78;;;1.67;;
26965;SDS011;14522;52.068;4.414;2023-11-21T09:32:21;2.22;;;1.25;;
26965;SDS011;14522;52.068;4.414;2023-11-21T09:34:48;4.07;;;1.77;;
26965;SDS011;14522;52.068;4.414;2023-11-21T09:37:15;2.33;;;1.00;;
26965;SDS011;14522;52.068;4.414;2023-11-21T09:39:42;1.42;;;1.10;;
26965;SDS011;14522;52.068;4.414;2023-11-21T09:42:31;2.92;;;1.50;;
26965;SDS011;14522;52.068;4.414;2023-11-21T09:47:32;2.70;;;1.70;;
26965;SDS011;14522;52.068;4.414;2023-11-21T09:49:59;2.38;;;1.80;;
26965;SDS011;14522;52.068;4.414;2023-11-21T09:52:27;2.22;;;1.60;;
26965;SDS011;14522;52.068;4.414;2023-11-21T09:54:54;2.80;;;1.90;;
26965;SDS011;14522;52.068;4.414;2023-11-21T09:57:23;2.90;;;1.95;;
26965;SDS011;14522;52.068;4.414;2023-11-21T09:59:53;3.72;;;1.67;;
26965;SDS011;14522;52.068;4.414;2023-11-21T10:02:26;5.80;;;2.00;;
26965;SDS011;14522;52.068;4.414;2023-11-21T10:04:53;3.55;;;2.25;;
26965;SDS011;14522;52.068;4.414;2023-11-21T10:07:20;3.35;;;1.90;;
26965;SDS011;14522;52.068;4.414;2023-11-21T10:09:47;3.95;;;1.77;;
26965;SDS011;14522;52.068;4.414;2023-11-21T10:12:14;3.05;;;1.95;;
26965;SDS011;14522;52.068;4.414;2023-11-21T10:14:41;4.07;;;1.85;;
26965;SDS011;14522;52.068;4.414;2023-11-21T10:17:08;2.58;;;1.83;;
26965;SDS011;14522;52.068;4.414;2023-11-21T10:19:38;2.65;;;1.50;;
26965;SDS011;14522;52.068;4.414;2023-11-21T10:22:05;2.40;;;1.23;;
26965;SDS011;14522;52.068;4.414;2023-11-21T10:24:33;2.00;;;0.98;;
26965;SDS011;14522;52.068;4.414;2023-11-21T10:27:13;2.17;;;1.15;;
26965;SDS011;14522;52.068;4.414;2023-11-21T10:29:40;1.98;;;1.10;;
26965;SDS011;14522;52.068;4.414;2023-11-21T10:32:08;2.35;;;1.00;;
26965;SDS011;14522;52.068;4.414;2023-11-21T10:34:34;1.90;;;1.08;;
26965;SDS011;14522;52.068;4.414;2023-11-21T10:37:10;2.67;;;1.20;;
26965;SDS011;14522;52.068;4.414;2023-11-21T10:39:37;1.77;;;1.05;;
26965;SDS011;14522;52.068;4.414;2023-11-21T10:42:07;3.92;;;1.20;;
26965;SDS011;14522;52.068;4.414;2023-11-21T10:44:34;1.92;;;1.05;;
26965;SDS011;14522;52.068;4.414;2023-11-21T10:47:00;3.55;;;1.33;;
26965;SDS011;14522;52.068;4.414;2023-11-21T10:49:28;2.30;;;1.27;;
26965;SDS011;14522;52.068;4.414;2023-11-21T10:51:55;2.17;;;1.40;;
26965;SDS011;14522;52.068;4.414;2023-11-21T10:54:23;2.15;;;1.50;;
26965;SDS011;14522;52.068;4.414;2023-11-21T10:56:50;2.67;;;1.55;;
26965;SDS011;14522;52.068;4.414;2023-11-21T10:59:20;2.63;;;1.17;;
26965;SDS011;14522;52.068;4.414;2023-11-21T11:01:51;4.75;;;1.40;;
26965;SDS011;14522;52.068;4.414;2023-11-21T11:04:19;4.40;;;1.75;;
26965;SDS011;14522;52.068;4.414;2023-11-21T11:06:48;2.03;;;1.23;;
26965;SDS011;14522;52.068;4.414;2023-11-21T11:09:17;2.28;;;1.20;;
26965;SDS011;14522;52.068;4.414;2023-11-21T11:11:43;2.03;;;1.80;;
26965;SDS011;14522;52.068;4.414;2023-11-21T11:14:10;2.60;;;1.88;;
26965;SDS011;14522;52.068;4.414;2023-11-21T11:16:38;2.38;;;1.58;;
26965;SDS011;14522;52.068;4.414;2023-11-21T11:19:07;4.63;;;2.30;;
26965;SDS011;14522;52.068;4.414;2023-11-21T11:29:47;3.55;;;2.35;;
26965;SDS011;14522;52.068;4.414;2023-11-21T11:35:01;4.43;;;2.95;;
26965;SDS011;14522;52.068;4.414;2023-11-21T11:37:29;5.72;;;3.40;;
26965;SDS011;14522;52.068;4.414;2023-11-21T11:39:56;5.13;;;3.13;;
26965;SDS011;14522;52.068;4.414;2023-11-21T11:42:23;6.43;;;3.28;;
26965;SDS011;14522;52.068;4.414;2023-11-21T11:44:50;3.50;;;2.78;;
26965;SDS011;14522;52.068;4.414;2023-11-21T11:47:22;4.43;;;2.75;;
26965;SDS011;14522;52.068;4.414;2023-11-21T11:50:06;4.88;;;2.92;;
26965;SDS011;14522;52.068;4.414;2023-11-21T11:55:02;3.40;;;2.17;;
26965;SDS011;14522;52.068;4.414;2023-11-21T11:57:31;4.10;;;2.53;;
26965;SDS011;14522;52.068;4.414;2023-11-21T12:00:08;3.78;;;2.42;;
26965;SDS011;14522;52.068;4.414;2023-11-21T12:02:38;3.95;;;2.20;;
26965;SDS011;14522;52.068;4.414;2023-11-21T12:05:11;4.82;;;2.92;;
26965;SDS011;14522;52.068;4.414;2023-11-21T12:07:57;4.70;;;3.17;;
26965;SDS011;14522;52.068;4.414;2023-11-21T12:10:25;5.18;;;3.08;;
26965;SDS011;14522;52.068;4.414;2023-11-21T12:12:52;7.25;;;3.83;;
26965;SDS011;14522;52.068;4.414;2023-11-21T12:15:19;3.80;;;2.42;;
26965;SDS011;14522;52.068;4.414;2023-11-21T12:17:45;5.05;;;3.38;;
26965;SDS011;14522;52.068;4.414;2023-11-21T12:20:12;4.38;;;2.70;;
26965;SDS011;14522;52.068;4.414;2023-11-21T12:22:47;3.65;;;2.55;;
26965;SDS011;14522;52.068;4.414;2023-11-21T12:25:20;4.88;;;2.78;;
26965;SDS011;14522;52.068;4.414;2023-11-21T12:27:53;4.57;;;2.53;;
26965;SDS011;14522;52.068;4.414;2023-11-21T12:30:21;4.72;;;3.00;;
26965;SDS011;14522;52.068;4.414;2023-11-21T12:32:52;6.88;;;2.90;;
26965;SDS011;14522;52.068;4.414;2023-11-21T12:35:19;4.30;;;2.83;;
26965;SDS011;14522;52.068;4.414;2023-11-21T12:37:47;3.72;;;2.80;;
26965;SDS011;14522;52.068;4.414;2023-11-21T12:40:15;4.55;;;2.83;;
26965;SDS011;14522;52.068;4.414;2023-11-21T12:42:42;3.25;;;2.30;;
26965;SDS011;14522;52.068;4.414;2023-11-21T12:50:23;3.53;;;2.33;;
26965;SDS011;14522;52.068;4.414;2023-11-21T12:52:51;2.95;;;1.95;;
26965;SDS011;14522;52.068;4.414;2023-11-21T12:55:18;3.75;;;2.10;;
26965;SDS011;14522;52.068;4.414;2023-11-21T12:57:51;5.20;;;2.40;;
26965;SDS011;14522;52.068;4.414;2023-11-21T13:00:18;3.88;;;2.47;;
26965;SDS011;14522;52.068;4.414;2023-11-21T13:02:54;4.13;;;2.00;;
26965;SDS011;14522;52.068;4.414;2023-11-21T13:05:24;4.10;;;2.20;;
26965;SDS011;14522;52.068;4.414;2023-11-21T13:07:50;2.55;;;2.00;;
26965;SDS011;14522;52.068;4.414;2023-11-21T13:10:24;4.30;;;2.53;;
26965;SDS011;14522;52.068;4.414;2023-11-21T13:12:52;3.30;;;2.15;;
26965;SDS011;14522;52.068;4.414;2023-11-21T13:15:20;4.95;;;2.78;;
26965;SDS011;14522;52.068;4.414;2023-11-21T13:17:46;5.97;;;2.85;;
26965;SDS011;14522;52.068;4.414;2023-11-21T13:20:13;4.47;;;3.28;;
26965;SDS011;14522;52.068;4.414;2023-11-21T13:23:16;7.60;;;3.25;;
26965;SDS011;14522;52.068;4.414;2023-11-21T13:25:35;4.30;;;2.55;;
26965;SDS011;14522;52.068;4.414;2023-11-21T13:28:03;5.93;;;3.25;;
26965;SDS011;14522;52.068;4.414;2023-11-21T13:30:30;5.25;;;3.22;;
26965;SDS011;14522;52.068;4.414;2023-11-21T13:33:00;2.00;;;1.27;;
26965;SDS011;14522;52.068;4.414;2023-11-21T13:35:32;4.93;;;2.53;;
26965;SDS011;14522;52.068;4.414;2023-11-21T13:38:07;3.97;;;2.72;;
26965;SDS011;14522;52.068;4.414;2023-11-21T13:40:35;3.20;;;2.33;;
26965;SDS011;14522;52.068;4.414;2023-11-21T13:43:13;5.43;;;3.13;;
26965;SDS011;14522;52.068;4.414;2023-11-21T13:45:40;7.72;;;3.42;;
26965;SDS011;14522;52.068;4.414;2023-11-21T13:48:11;4.85;;;3.20;;
26965;SDS011;14522;52.068;4.414;2023-11-21T13:50:40;3.58;;;2.53;;
26965;SDS011;14522;52.068;4.414;2023-11-21T13:53:14;6.60;;;2.53;;
26965;SDS011;14522;52.068;4.414;2023-11-21T13:55:53;5.53;;;2.75;;
26965;SDS011;14522;52.068;4.414;2023-11-21T13:58:24;2.92;;;1.98;;
26965;SDS011;14522;52.068;4.414;2023-11-21T14:01:09;4.63;;;2.95;;
26965;SDS011;14522;52.068;4.414;2023-11-21T14:03:51;5.57;;;2.67;;
26965;SDS011;14522;52.068;4.414;2023-11-21T14:06:29;4.50;;;2.70;;
26965;SDS011;14522;52.068;4.414;2023-11-21T14:09:00;5.35;;;3.08;;
26965;SDS011;14522;52.068;4.414;2023-11-21T14:11:31;4.47;;;2.92;;
26965;SDS011;14522;52.068;4.414;2023-11-21T14:14:05;5.55;;;3.35;;
26965;SDS011;14522;52.068;4.414;2023-11-21T14:16:31;6.40;;;3.70;;
26965;SDS011;14522;52.068;4.414;2023-11-21T14:18:58;5.43;;;3.90;;
26965;SDS011;14522;52.068;4.414;2023-11-21T14:21:30;6.72;;;3.80;;
26965;SDS011;14522;52.068;4.414;2023-11-21T14:23:56;4.65;;;3.40;;
26965;SDS011;14522;52.068;4.414;2023-11-21T14:26:23;5.63;;;3.90;;
26965;SDS011;14522;52.068;4.414;2023-11-21T14:28:52;6.28;;;4.45;;
26965;SDS011;14522;52.068;4.414;2023-11-21T14:31:20;6.03;;;4.10;;
26965;SDS011;14522;52.068;4.414;2023-11-21T14:33:46;6.97;;;4.15;;
26965;SDS011;14522;52.068;4.414;2023-11-21T14:36:13;6.25;;;4.10;;
26965;SDS011;14522;52.068;4.414;2023-11-21T14:38:39;10.00;;;5.55;;
26965;SDS011;14522;52.068;4.414;2023-11-21T14:41:06;8.05;;;4.93;;
26965;SDS011;14522;52.068;4.414;2023-11-21T14:43:34;8.13;;;4.88;;
26965;SDS011;14522;52.068;4.414;2023-11-21T14:46:02;8.05;;;4.68;;
26965;SDS011;14522;52.068;4.414;2023-11-21T14:48:30;6.88;;;4.05;;
26965;SDS011;14522;52.068;4.414;2023-11-21T14:51:09;6.00;;;3.50;;
26965;SDS011;14522;52.068;4.414;2023-11-21T14:53:41;6.10;;;4.63;;
26965;SDS011;14522;52.068;4.414;2023-11-21T14:56:30;5.78;;;3.13;;
26965;SDS011;14522;52.068;4.414;2023-11-21T14:58:59;8.15;;;5.05;;
26965;SDS011;14522;52.068;4.414;2023-11-21T15:01:32;3.70;;;2.40;;
26965;SDS011;14522;52.068;4.414;2023-11-21T15:04:21;8.63;;;4.55;;
26965;SDS011;14522;52.068;4.414;2023-11-21T15:07:05;6.45;;;4.53;;
26965;SDS011;14522;52.068;4.414;2023-11-21T15:09:32;6.85;;;4.63;;
26965;SDS011;14522;52.068;4.414;2023-11-21T15:11:59;7.05;;;4.30;;
26965;SDS011;14522;52.068;4.414;2023-11-21T15:14:35;6.75;;;4.60;;